Forside
METAR-TAF:

METAR-TAF

Lufthavne :

Springdale, Arkansas, USA

Breddekreds: 36-11N, længdekreds: 094-07W, højde: 412 m

Aktuelle vejr

Denne rapport blev lavet for 45 minutter siden, kl. 22:48 UTC
Vind 4 kt fra østnordøst
Temperatur 0°C
Fugtighed 47%
Tryk 1028 hPa
Sigt: 16.1 km
Spredte skyer i en højde af 4300 ft
Spredte skyer i en højde af 4800 ft
Overskyet i en højde af 7500 ft

METAR: KASG 142248Z 06004KT 10SM SCT043 SCT048 OVC075 00/M10 A3035

Tid: 17:33 (23:33 UTC)


TAF: fraværende

Vejrobservationer og prognoser fra mere end 4000 lufthavne (METAR og TAF).

De gule og røde prikker repræsenterer de meteorologiske stationer.

Flyt musen over at se navnet på stationen.

Så klik over at se vejr observationer og prognoser.

At skifte det kort: Klik på de grønne knapper med et sort kors for at zoome ind; på den grønne knap med en bindestreg for at zoome ud; eller på de grønne pile for tilstødende kort.


METAR-TAF: